Time;durP1;ratioP1;P1;durP2;ratioP2;P2;SDS_P1;SDS_P2;PMS_P1;PMS_P2;Temp;Humidity;BMP_temperature;BMP_pressure;BME280_temperature;BME280_humidity;BME280_pressure;Samples;Min_cycle;Max_cycle;Signal;HPM_P1;HPM_P2
2023/02/22 00:03:54;;;;;;;16.58;7.30;;;;;;;;;;4986875;23;20188;-60
2023/02/22 00:06:22;;;;;;;19.42;8.60;;;;;;;;;;5014258;28;20065;-65
2023/02/22 00:08:51;;;;;;;21.05;9.05;;;;;;;;;;5016062;28;20049;-65
2023/02/22 00:11:16;;;;;;;19.83;8.30;;;;;;;;;;5018143;28;20030;-68
2023/02/22 00:13:43;;;;;;;19.77;9.68;;;;;;;;;;5017698;28;20044;-68
2023/02/22 00:16:12;;;;;;;21.80;9.73;;;;;;;;;;5018263;28;20365;-68
2023/02/22 00:18:44;;;;;;;16.48;7.90;;;;;;;;;;5018035;28;20034;-68
2023/02/22 00:21:10;;;;;;;18.25;8.05;;;;;;;;;;5017890;28;20041;-69
2023/02/22 00:23:39;;;;;;;20.10;8.07;;;;;;;;;;5017988;28;20069;-69
2023/02/22 00:26:05;;;;;;;17.63;7.45;;;;;;;;;;5000207;28;20034;-62
2023/02/22 00:28:31;;;;;;;16.58;7.82;;;;;;;;;;5017975;28;20022;-61
2023/02/22 00:30:58;;;;;;;16.10;7.55;;;;;;;;;;5017676;28;20033;-62
2023/02/22 00:33:23;;;;;;;19.70;8.40;;;;;;;;;;5002768;23;20494;-69
2023/02/22 00:35:49;;;;;;;19.25;7.82;;;;;;;;;;5014445;23;20137;-70
2023/02/22 00:38:16;;;;;;;18.73;8.80;;;;;;;;;;4961789;28;20550;-62
2023/02/22 00:40:42;;;;;;;18.88;8.00;;;;;;;;;;4995067;28;20045;-61
2023/02/22 00:43:07;;;;;;;19.55;7.68;;;;;;;;;;4980370;28;20041;-61
2023/02/22 00:45:40;;;;;;;19.75;7.60;;;;;;;;;;4980649;28;20027;-60
2023/02/22 00:48:07;;;;;;;17.35;7.57;;;;;;;;;;4997954;28;20506;-61
2023/02/22 00:50:35;;;;;;;14.75;7.10;;;;;;;;;;4959394;28;20406;-62
2023/02/22 00:53:02;;;;;;;18.55;7.70;;;;;;;;;;4978287;28;20470;-62
2023/02/22 00:55:30;;;;;;;18.33;7.43;;;;;;;;;;4960916;28;20035;-61
2023/02/22 00:57:56;;;;;;;17.17;6.78;;;;;;;;;;4978125;28;20027;-61
2023/02/22 01:00:24;;;;;;;14.73;6.90;;;;;;;;;;4960675;28;20101;-67
2023/02/22 01:02:49;;;;;;;18.13;7.28;;;;;;;;;;4972512;28;20033;-67
2023/02/22 01:05:16;;;;;;;19.27;8.00;;;;;;;;;;4978813;28;20034;-67
2023/02/22 01:07:41;;;;;;;19.88;7.50;;;;;;;;;;4951085;28;20033;-61
2023/02/22 01:10:07;;;;;;;18.17;7.97;;;;;;;;;;4997426;28;20026;-61
2023/02/22 01:12:33;;;;;;;18.65;7.72;;;;;;;;;;4980570;28;20023;-61
2023/02/22 01:15:04;;;;;;;20.23;8.05;;;;;;;;;;4997496;28;20034;-61
2023/02/22 01:17:29;;;;;;;17.42;7.82;;;;;;;;;;4997491;28;20084;-61
2023/02/22 01:19:55;;;;;;;19.45;8.07;;;;;;;;;;4995634;28;20509;-61
2023/02/22 01:22:20;;;;;;;27.50;8.07;;;;;;;;;;4997195;28;20026;-61
2023/02/22 01:24:47;;;;;;;16.63;7.38;;;;;;;;;;4996951;28;20411;-61
2023/02/22 01:27:13;;;;;;;16.17;7.03;;;;;;;;;;4997240;28;20118;-61
2023/02/22 01:29:38;;;;;;;18.48;7.35;;;;;;;;;;4996965;28;20042;-62
2023/02/22 01:32:05;;;;;;;15.45;7.00;;;;;;;;;;4997338;28;20470;-61
2023/02/22 01:34:32;;;;;;;17.45;7.57;;;;;;;;;;4963173;28;20073;-61
2023/02/22 01:37:00;;;;;;;18.13;7.25;;;;;;;;;;4979401;28;20482;-60
2023/02/22 01:39:25;;;;;;;14.98;6.57;;;;;;;;;;4979086;28;20121;-60
2023/02/22 01:41:52;;;;;;;16.83;6.70;;;;;;;;;;4978991;28;20058;-60
2023/02/22 01:44:29;;;;;;;16.38;7.20;;;;;;;;;;4991799;28;20081;-60
2023/02/22 01:46:59;;;;;;;20.58;7.18;;;;;;;;;;4959538;28;20081;-60
2023/02/22 01:49:27;;;;;;;17.13;7.47;;;;;;;;;;4960536;28;20026;-60
2023/02/22 01:51:54;;;;;;;16.58;7.10;;;;;;;;;;4970840;28;20054;-60
2023/02/22 01:54:25;;;;;;;14.02;6.40;;;;;;;;;;4977049;28;20023;-61
2023/02/22 01:56:59;;;;;;;16.73;6.72;;;;;;;;;;4991837;28;20041;-61
2023/02/22 01:59:26;;;;;;;15.27;6.90;;;;;;;;;;4978675;28;20030;-61
2023/02/22 02:01:53;;;;;;;16.38;6.43;;;;;;;;;;4996028;28;20386;-61
2023/02/22 02:04:24;;;;;;;14.18;6.13;;;;;;;;;;4996036;28;20109;-61
2023/02/22 02:06:56;;;;;;;13.18;5.85;;;;;;;;;;4996254;28;20351;-69
2023/02/22 02:09:23;;;;;;;13.15;5.93;;;;;;;;;;4961376;28;20038;-68
2023/02/22 02:11:48;;;;;;;14.13;5.43;;;;;;;;;;4943907;28;20069;-68
2023/02/22 02:14:14;;;;;;;11.73;5.32;;;;;;;;;;4976685;28;20046;-69
2023/02/22 02:16:41;;;;;;;15.60;5.72;;;;;;;;;;4959208;28;20045;-68
2023/02/22 02:19:14;;;;;;;13.95;5.65;;;;;;;;;;4959545;28;20043;-67
2023/02/22 02:21:42;;;;;;;15.38;5.50;;;;;;;;;;4976398;28;20027;-67
2023/02/22 02:24:09;;;;;;;15.25;5.60;;;;;;;;;;4978529;23;20193;-61
2023/02/22 02:26:36;;;;;;;14.75;6.07;;;;;;;;;;4959682;28;20023;-60
2023/02/22 02:29:21;;;;;;;14.13;5.55;;;;;;;;;;4959329;28;20035;-61
2023/02/22 02:32:04;;;;;;;12.95;5.43;;;;;;;;;;4976291;28;20023;-61
2023/02/22 02:38:50;;;;;;;18.10;5.82;;;;;;;;;;5010236;23;20113;-68
2023/02/22 02:41:31;;;;;;;13.50;5.70;;;;;;;;;;4987327;28;20469;-68
2023/02/22 02:43:59;;;;;;;12.48;5.55;;;;;;;;;;4994065;28;20043;-68
2023/02/22 02:46:30;;;;;;;12.93;5.75;;;;;;;;;;4961695;28;20030;-70
2023/02/22 02:48:59;;;;;;;12.27;5.20;;;;;;;;;;4978256;28;20068;-69
2023/02/22 02:51:30;;;;;;;13.95;5.55;;;;;;;;;;4995120;28;20041;-69
2023/02/22 02:53:58;;;;;;;10.55;5.32;;;;;;;;;;4995347;28;20092;-66
2023/02/22 02:56:23;;;;;;;12.20;5.03;;;;;;;;;;4994990;28;20101;-66
2023/02/22 02:58:50;;;;;;;14.43;5.43;;;;;;;;;;4994897;28;20447;-66
2023/02/22 03:01:19;;;;;;;15.13;5.28;;;;;;;;;;4977437;28;20027;-66
2023/02/22 03:03:51;;;;;;;15.13;5.70;;;;;;;;;;4962005;28;20113;-68
2023/02/22 03:06:36;;;;;;;10.32;5.07;;;;;;;;;;4994784;28;20026;-68
2023/02/22 03:09:20;;;;;;;12.50;5.57;;;;;;;;;;4995498;28;20037;-61
2023/02/22 03:12:06;;;;;;;11.30;5.18;;;;;;;;;;4977161;28;20034;-66
2023/02/22 03:14:45;;;;;;;15.98;5.65;;;;;;;;;;4977530;28;20429;-66
2023/02/22 03:17:22;;;;;;;13.18;5.88;;;;;;;;;;4994341;28;20034;-66
2023/02/22 03:19:57;;;;;;;10.38;5.15;;;;;;;;;;4977447;28;20490;-66
2023/02/22 03:22:36;;;;;;;14.90;5.15;;;;;;;;;;4995060;28;20030;-66
2023/02/22 03:25:07;;;;;;;11.18;5.15;;;;;;;;;;4977806;28;20029;-66
2023/02/22 03:27:36;;;;;;;10.00;5.10;;;;;;;;;;4977577;28;20041;-66
2023/02/22 03:30:06;;;;;;;10.20;4.90;;;;;;;;;;4977564;28;20044;-66
2023/02/22 03:32:36;;;;;;;8.52;5.05;;;;;;;;;;4995059;28;20034;-66
2023/02/22 03:35:06;;;;;;;9.43;4.72;;;;;;;;;;4977438;28;20030;-66
2023/02/22 03:37:37;;;;;;;11.55;5.22;;;;;;;;;;4976897;28;20097;-67
2023/02/22 03:40:13;;;;;;;11.43;5.00;;;;;;;;;;4994433;28;20038;-67
2023/02/22 03:42:40;;;;;;;10.88;4.75;;;;;;;;;;4977018;28;20022;-66
2023/02/22 03:45:08;;;;;;;12.85;6.13;;;;;;;;;;4994661;28;20545;-66
2023/02/22 03:47:38;;;;;;;15.18;7.00;;;;;;;;;;4977158;28;20026;-66
2023/02/22 03:50:14;;;;;;;15.38;6.07;;;;;;;;;;4977107;28;20030;-65
2023/02/22 03:52:42;;;;;;;13.35;5.90;;;;;;;;;;4994645;28;20164;-66
2023/02/22 03:55:12;;;;;;;12.15;5.05;;;;;;;;;;4976441;28;20030;-66
2023/02/22 03:57:42;;;;;;;16.10;5.32;;;;;;;;;;4977450;28;20031;-66
2023/02/22 04:00:10;;;;;;;12.05;5.28;;;;;;;;;;4960365;28;20026;-66
2023/02/22 04:02:39;;;;;;;10.82;5.43;;;;;;;;;;4995119;28;20486;-65
2023/02/22 04:05:05;;;;;;;12.57;5.10;;;;;;;;;;4976438;28;20058;-66
2023/02/22 04:07:30;;;;;;;13.05;4.93;;;;;;;;;;4976492;28;20100;-66
2023/02/22 04:09:56;;;;;;;14.48;5.35;;;;;;;;;;4960411;28;20042;-67
2023/02/22 04:12:21;;;;;;;11.95;5.18;;;;;;;;;;4976644;28;20023;-67
2023/02/22 04:14:58;;;;;;;15.27;5.65;;;;;;;;;;4994332;28;20367;-66
2023/02/22 04:17:25;;;;;;;13.05;5.45;;;;;;;;;;4976635;28;20039;-67
2023/02/22 04:19:50;;;;;;;15.02;5.45;;;;;;;;;;4977317;28;20025;-67
2023/02/22 04:22:17;;;;;;;11.27;5.47;;;;;;;;;;4976788;28;20022;-66
2023/02/22 04:24:44;;;;;;;15.38;6.10;;;;;;;;;;4976987;28;20030;-66
2023/02/22 04:27:09;;;;;;;11.43;5.63;;;;;;;;;;4977009;28;20022;-66
2023/02/22 04:29:36;;;;;;;14.20;5.40;;;;;;;;;;4976764;28;20406;-66
2023/02/22 04:32:03;;;;;;;15.65;6.68;;;;;;;;;;4976229;28;20117;-64
2023/02/22 04:34:28;;;;;;;21.95;9.40;;;;;;;;;;4976922;28;20118;-64
2023/02/22 04:36:54;;;;;;;20.88;9.48;;;;;;;;;;4994170;28;20054;-67
2023/02/22 04:39:19;;;;;;;19.35;8.75;;;;;;;;;;4976862;28;20427;-68
2023/02/22 04:41:46;;;;;;;16.23;7.07;;;;;;;;;;4976676;28;20038;-61
2023/02/22 04:44:12;;;;;;;15.90;8.77;;;;;;;;;;4994144;28;20030;-61
2023/02/22 04:46:37;;;;;;;14.70;7.38;;;;;;;;;;4994133;28;20336;-61
2023/02/22 04:49:02;;;;;;;21.83;10.38;;;;;;;;;;4976854;28;20038;-60
2023/02/22 04:51:31;;;;;;;32.50;15.90;;;;;;;;;;4976285;28;20018;-67
2023/02/22 04:53:59;;;;;;;39.38;17.75;;;;;;;;;;4977140;28;20124;-66
2023/02/22 04:56:25;;;;;;;42.17;20.83;;;;;;;;;;4964220;28;20109;-65
2023/02/22 04:58:50;;;;;;;34.30;16.98;;;;;;;;;;4980214;28;20378;-61
2023/02/22 05:01:15;;;;;;;37.35;16.63;;;;;;;;;;4997321;28;20157;-67
2023/02/22 05:03:43;;;;;;;33.45;16.40;;;;;;;;;;4980310;28;20554;-66
2023/02/22 05:06:08;;;;;;;33.70;16.15;;;;;;;;;;4979303;28;20035;-73
2023/02/22 05:08:52;;;;;;;33.78;17.92;;;;;;;;;;5020434;23;20066;-63
2023/02/22 05:15:19;;;;;;;41.78;22.08;;;;;;;;;;4998030;23;20077;-58
2023/02/22 05:17:45;;;;;;;46.30;24.98;;;;;;;;;;4995947;28;20023;-64
2023/02/22 05:20:28;;;;;;;45.33;24.95;;;;;;;;;;4996893;28;20472;-64
2023/02/22 05:22:57;;;;;;;31.80;17.98;;;;;;;;;;4978082;28;20030;-64
2023/02/22 05:25:23;;;;;;;36.42;19.33;;;;;;;;;;4978535;28;20411;-64
2023/02/22 05:27:50;;;;;;;32.33;17.00;;;;;;;;;;4989139;28;20022;-64
2023/02/22 05:30:16;;;;;;;32.88;17.25;;;;;;;;;;4977206;28;20481;-64
2023/02/22 05:32:41;;;;;;;31.63;17.23;;;;;;;;;;4986592;28;20030;-64
2023/02/22 05:35:07;;;;;;;28.67;15.38;;;;;;;;;;4996725;28;20035;-58
2023/02/22 05:37:32;;;;;;;22.65;12.90;;;;;;;;;;4996748;28;20458;-60
2023/02/22 05:39:58;;;;;;;38.13;13.98;;;;;;;;;;4996394;28;20034;-60
2023/02/22 05:42:23;;;;;;;30.42;12.45;;;;;;;;;;4996437;28;20442;-60
2023/02/22 05:44:49;;;;;;;25.27;13.45;;;;;;;;;;4986722;28;20062;-67
2023/02/22 05:47:14;;;;;;;27.98;13.25;;;;;;;;;;4959555;28;20030;-67
2023/02/22 05:49:39;;;;;;;27.35;14.02;;;;;;;;;;4959585;28;20034;-68
2023/02/22 05:52:05;;;;;;;27.13;13.00;;;;;;;;;;4959715;28;20070;-70
2023/02/22 05:54:30;;;;;;;25.38;11.95;;;;;;;;;;4976863;28;20061;-72
2023/02/22 05:56:55;;;;;;;24.02;12.10;;;;;;;;;;4977344;28;20466;-72
2023/02/22 05:59:21;;;;;;;26.08;10.95;;;;;;;;;;4959535;28;20073;-60
2023/02/22 06:01:46;;;;;;;19.80;10.18;;;;;;;;;;4977080;28;20038;-60
2023/02/22 06:04:11;;;;;;;19.52;9.63;;;;;;;;;;4959204;28;20462;-60
2023/02/22 06:06:37;;;;;;;23.25;10.55;;;;;;;;;;4958538;28;20042;-60
2023/02/22 06:09:02;;;;;;;22.77;11.95;;;;;;;;;;4987476;28;20034;-58
2023/02/22 06:11:27;;;;;;;25.75;12.25;;;;;;;;;;4988334;28;20482;-57
2023/02/22 06:13:53;;;;;;;26.83;12.68;;;;;;;;;;4958561;28;20039;-58
2023/02/22 06:16:19;;;;;;;23.38;12.52;;;;;;;;;;4975803;28;20094;-58
2023/02/22 06:18:45;;;;;;;22.05;12.98;;;;;;;;;;4974865;28;20065;-58
2023/02/22 06:21:10;;;;;;;21.73;12.20;;;;;;;;;;4975272;28;20031;-58
2023/02/22 06:23:36;;;;;;;24.10;13.68;;;;;;;;;;4975206;28;20027;-58
2023/02/22 06:26:01;;;;;;;22.08;13.02;;;;;;;;;;4975305;28;20030;-58
2023/02/22 06:28:26;;;;;;;25.73;16.45;;;;;;;;;;4974884;28;20031;-58
2023/02/22 06:30:52;;;;;;;28.65;14.68;;;;;;;;;;4974917;28;20647;-57
2023/02/22 06:33:17;;;;;;;24.73;11.60;;;;;;;;;;4975985;28;20086;-57
2023/02/22 06:35:44;;;;;;;17.85;10.13;;;;;;;;;;4976041;28;20485;-69
2023/02/22 06:38:10;;;;;;;15.07;8.43;;;;;;;;;;4958427;28;20027;-65
2023/02/22 06:40:35;;;;;;;20.50;10.20;;;;;;;;;;4957756;28;20043;-61
2023/02/22 06:43:01;;;;;;;23.65;11.02;;;;;;;;;;4974996;28;20037;-62
2023/02/22 06:45:27;;;;;;;29.88;15.77;;;;;;;;;;4974984;28;20015;-62
2023/02/22 06:47:52;;;;;;;28.98;15.23;;;;;;;;;;4975898;28;20085;-58
2023/02/22 06:50:20;;;;;;;23.35;11.43;;;;;;;;;;4957689;28;20467;-57
2023/02/22 06:52:46;;;;;;;24.52;13.05;;;;;;;;;;4975395;28;20082;-61
2023/02/22 06:55:15;;;;;;;25.05;13.00;;;;;;;;;;4975871;28;20076;-61
2023/02/22 06:57:41;;;;;;;23.08;13.10;;;;;;;;;;4975716;28;20023;-61
2023/02/22 07:00:07;;;;;;;32.15;16.60;;;;;;;;;;4957348;28;20031;-61
2023/02/22 07:02:33;;;;;;;42.88;24.17;;;;;;;;;;4974230;28;20505;-61
2023/02/22 07:04:59;;;;;;;33.78;20.02;;;;;;;;;;4974245;28;20030;-62
2023/02/22 07:07:24;;;;;;;25.40;14.98;;;;;;;;;;4957687;28;20490;-61
2023/02/22 07:09:49;;;;;;;29.20;14.20;;;;;;;;;;4974575;28;20114;-61
2023/02/22 07:12:15;;;;;;;30.25;15.25;;;;;;;;;;4973861;28;20436;-62
2023/02/22 07:14:40;;;;;;;28.50;15.05;;;;;;;;;;4956052;28;20058;-62
2023/02/22 07:17:06;;;;;;;26.45;13.85;;;;;;;;;;4956321;28;20070;-61
2023/02/22 07:19:31;;;;;;;29.40;14.32;;;;;;;;;;4973539;28;20094;-69
2023/02/22 07:21:58;;;;;;;28.45;14.90;;;;;;;;;;4956327;28;20082;-69
2023/02/22 07:24:23;;;;;;;31.17;14.93;;;;;;;;;;4973479;28;20046;-69
2023/02/22 07:26:49;;;;;;;27.60;12.57;;;;;;;;;;4973321;28;20118;-69
2023/02/22 07:29:30;;;;;;;19.77;10.50;;;;;;;;;;4982350;23;20027;-69
2023/02/22 07:31:56;;;;;;;18.83;8.98;;;;;;;;;;4984626;23;20054;-69
2023/02/22 07:34:21;;;;;;;18.02;7.85;;;;;;;;;;4994519;28;20560;-69
2023/02/22 07:36:48;;;;;;;17.48;7.85;;;;;;;;;;4994528;28;20041;-69
2023/02/22 07:39:13;;;;;;;14.07;6.35;;;;;;;;;;4994422;28;20034;-69
2023/02/22 07:41:39;;;;;;;18.02;7.03;;;;;;;;;;4988246;23;20506;-62
2023/02/22 07:44:17;;;;;;;22.58;8.52;;;;;;;;;;4983135;23;20054;-69
2023/02/22 07:46:45;;;;;;;20.05;8.57;;;;;;;;;;4974884;28;20505;-70
2023/02/22 07:49:12;;;;;;;17.88;7.85;;;;;;;;;;4974901;28;20061;-70
2023/02/22 07:51:37;;;;;;;14.57;7.20;;;;;;;;;;4974914;28;20383;-69
2023/02/22 07:54:02;;;;;;;16.80;7.22;;;;;;;;;;4957600;28;20043;-69
2023/02/22 07:56:28;;;;;;;15.20;7.00;;;;;;;;;;4974898;28;20027;-70
2023/02/22 07:58:53;;;;;;;17.38;7.30;;;;;;;;;;4974697;28;20558;-62
2023/02/22 08:01:18;;;;;;;18.65;8.05;;;;;;;;;;4974993;28;20034;-62
2023/02/22 08:03:46;;;;;;;15.30;8.20;;;;;;;;;;4974666;28;20062;-62
2023/02/22 08:06:12;;;;;;;18.38;7.85;;;;;;;;;;4974624;28;20579;-62
2023/02/22 08:08:38;;;;;;;19.20;8.45;;;;;;;;;;4974630;28;20037;-62
2023/02/22 08:11:04;;;;;;;16.30;8.13;;;;;;;;;;4974616;28;20439;-62
2023/02/22 08:13:30;;;;;;;16.35;7.82;;;;;;;;;;4957428;28;20039;-62
2023/02/22 08:15:55;;;;;;;17.05;7.57;;;;;;;;;;4974497;28;20035;-62
2023/02/22 08:18:21;;;;;;;32.85;12.13;;;;;;;;;;4974605;28;20139;-62
2023/02/22 08:20:47;;;;;;;14.52;5.55;;;;;;;;;;4957348;28;20386;-62
2023/02/22 08:23:13;;;;;;;10.15;3.83;;;;;;;;;;4974561;28;20019;-62
2023/02/22 08:25:38;;;;;;;19.90;6.50;;;;;;;;;;4975945;28;20093;-61
2023/02/22 08:28:05;;;;;;;22.25;7.70;;;;;;;;;;4975568;28;20033;-62
2023/02/22 08:30:31;;;;;;;10.43;4.13;;;;;;;;;;4977620;28;20050;-62
2023/02/22 08:32:57;;;;;;;6.05;2.70;;;;;;;;;;4960982;28;20031;-62
2023/02/22 08:35:23;;;;;;;9.38;3.70;;;;;;;;;;4978300;28;20114;-62
2023/02/22 08:37:50;;;;;;;12.80;4.80;;;;;;;;;;4978204;28;20111;-62
2023/02/22 08:40:16;;;;;;;9.55;3.75;;;;;;;;;;4978163;28;20034;-61
2023/02/22 08:42:42;;;;;;;4.88;2.08;;;;;;;;;;4978178;28;20034;-62
2023/02/22 08:45:07;;;;;;;3.25;1.95;;;;;;;;;;4978232;28;20047;-62
2023/02/22 08:47:33;;;;;;;3.08;1.15;;;;;;;;;;4978219;28;20109;-61
2023/02/22 08:49:58;;;;;;;4.80;1.70;;;;;;;;;;4978286;28;20039;-62
2023/02/22 08:52:23;;;;;;;4.95;1.77;;;;;;;;;;4977908;28;20035;-62
2023/02/22 08:54:49;;;;;;;4.90;2.10;;;;;;;;;;4960732;28;20431;-62
2023/02/22 08:57:14;;;;;;;4.68;1.98;;;;;;;;;;4960619;28;20498;-62
2023/02/22 08:59:39;;;;;;;5.22;2.08;;;;;;;;;;4960474;28;20085;-62
2023/02/22 09:02:09;;;;;;;5.15;2.30;;;;;;;;;;4977825;28;20035;-62
2023/02/22 09:04:35;;;;;;;6.15;2.17;;;;;;;;;;4977925;28;20031;-62
2023/02/22 09:07:00;;;;;;;5.03;2.47;;;;;;;;;;4977900;28;20034;-62
2023/02/22 09:09:25;;;;;;;3.67;2.50;;;;;;;;;;4977668;28;20034;-62
2023/02/22 09:11:51;;;;;;;5.32;2.30;;;;;;;;;;4977855;28;20565;-62
2023/02/22 09:14:16;;;;;;;6.28;2.50;;;;;;;;;;4977617;28;20411;-62
2023/02/22 09:16:43;;;;;;;5.38;3.00;;;;;;;;;;4960228;28;20030;-61
2023/02/22 09:19:08;;;;;;;3.05;2.17;;;;;;;;;;4944145;28;20023;-62
2023/02/22 09:21:33;;;;;;;5.55;2.10;;;;;;;;;;4977458;28;20074;-62
2023/02/22 09:24:07;;;;;;;4.13;2.22;;;;;;;;;;4990363;23;20336;-62
2023/02/22 09:26:38;;;;;;;4.72;2.08;;;;;;;;;;5040718;23;20063;-61
2023/02/22 09:29:09;;;;;;;5.57;2.20;;;;;;;;;;4996820;28;20042;-61
2023/02/22 09:31:35;;;;;;;4.78;1.83;;;;;;;;;;4997063;28;20045;-61
2023/02/22 09:34:01;;;;;;;4.38;2.13;;;;;;;;;;4997303;28;20113;-61
2023/02/22 09:36:27;;;;;;;5.28;1.88;;;;;;;;;;4996967;28;20046;-62
2023/02/22 09:38:52;;;;;;;5.30;2.22;;;;;;;;;;4996883;28;20097;-62
2023/02/22 09:41:22;;;;;;;5.03;2.75;;;;;;;;;;5004380;28;20057;-61
2023/02/22 09:43:59;;;;;;;3.40;1.93;;;;;;;;;;4996888;28;20026;-61
2023/02/22 09:46:28;;;;;;;4.40;2.17;;;;;;;;;;4996768;28;20466;-61
2023/02/22 09:49:00;;;;;;;4.97;2.40;;;;;;;;;;4996441;28;20035;-61
2023/02/22 09:51:27;;;;;;;4.15;2.50;;;;;;;;;;4996740;28;20066;-61
2023/02/22 09:53:55;;;;;;;6.22;2.58;;;;;;;;;;4994382;28;20117;-61
2023/02/22 09:56:21;;;;;;;8.38;2.88;;;;;;;;;;4996683;28;20030;-61
2023/02/22 09:58:51;;;;;;;6.93;2.63;;;;;;;;;;5007484;23;20082;-62
2023/02/22 10:01:28;;;;;;;4.93;2.67;;;;;;;;;;5040716;23;20056;-70
2023/02/22 10:03:57;;;;;;;6.13;2.95;;;;;;;;;;5055452;28;20049;-69
2023/02/22 10:06:23;;;;;;;5.28;2.60;;;;;;;;;;5055708;28;20033;-69
2023/02/22 10:08:50;;;;;;;5.72;2.78;;;;;;;;;;5069365;23;20064;-69
2023/02/22 10:13:57;;;;;;;4.35;2.30;;;;;;;;;;4991566;28;20053;-69
2023/02/22 10:16:35;;;;;;;5.95;2.70;;;;;;;;;;4996248;28;20038;-69
2023/02/22 10:19:15;;;;;;;6.78;3.08;;;;;;;;;;4978822;28;20390;-69
2023/02/22 10:21:59;;;;;;;6.30;2.80;;;;;;;;;;4978605;28;20038;-69
2023/02/22 10:24:38;;;;;;;7.55;3.13;;;;;;;;;;4995139;28;20265;-69
2023/02/22 10:27:27;;;;;;;6.95;3.47;;;;;;;;;;4995759;28;20514;-69
2023/02/22 10:29:56;;;;;;;7.40;2.97;;;;;;;;;;4990252;28;20101;-69
2023/02/22 10:32:24;;;;;;;6.15;2.60;;;;;;;;;;4995907;28;20535;-69
2023/02/22 10:34:52;;;;;;;7.85;2.67;;;;;;;;;;4995517;28;20077;-69
2023/02/22 10:37:27;;;;;;;6.50;2.58;;;;;;;;;;4995815;28;20018;-70
2023/02/22 10:40:04;;;;;;;6.05;2.53;;;;;;;;;;4995727;28;20489;-69
2023/02/22 10:42:29;;;;;;;5.13;2.40;;;;;;;;;;4996029;28;20022;-61
2023/02/22 10:44:54;;;;;;;7.63;2.55;;;;;;;;;;4995671;28;20532;-61
2023/02/22 10:47:20;;;;;;;5.15;2.33;;;;;;;;;;4995613;28;20030;-61
2023/02/22 10:49:48;;;;;;;4.68;2.60;;;;;;;;;;4977971;28;20028;-61
2023/02/22 10:52:32;;;;;;;4.22;2.40;;;;;;;;;;4994053;28;20040;-61
2023/02/22 10:55:00;;;;;;;4.68;2.53;;;;;;;;;;4995255;28;20030;-69
2023/02/22 10:57:27;;;;;;;5.25;2.63;;;;;;;;;;4995442;28;20034;-69
2023/02/22 10:59:55;;;;;;;5.38;2.17;;;;;;;;;;4995355;28;20053;-69
2023/02/22 11:02:28;;;;;;;3.70;2.25;;;;;;;;;;4995054;28;20462;-61
2023/02/22 11:04:55;;;;;;;3.53;2.20;;;;;;;;;;4995310;28;20481;-61
2023/02/22 11:07:20;;;;;;;6.60;2.42;;;;;;;;;;4993791;28;20027;-61
2023/02/22 11:09:52;;;;;;;5.20;2.40;;;;;;;;;;4994926;28;20492;-61
2023/02/22 11:12:25;;;;;;;7.00;2.45;;;;;;;;;;4994899;28;20055;-61
2023/02/22 11:14:50;;;;;;;8.75;3.95;;;;;;;;;;4994841;28;20489;-61
2023/02/22 11:17:18;;;;;;;7.97;3.13;;;;;;;;;;4993825;28;20014;-61
2023/02/22 11:19:47;;;;;;;4.97;2.47;;;;;;;;;;4995270;28;20533;-61
2023/02/22 11:22:19;;;;;;;6.70;2.47;;;;;;;;;;4995089;28;20032;-61
2023/02/22 11:24:56;;;;;;;4.40;2.20;;;;;;;;;;4993432;28;20073;-69
2023/02/22 11:27:22;;;;;;;4.60;1.98;;;;;;;;;;4994681;28;20032;-61
2023/02/22 11:29:49;;;;;;;5.35;2.28;;;;;;;;;;4994650;28;20500;-61
2023/02/22 11:32:21;;;;;;;5.72;2.08;;;;;;;;;;4994570;28;20037;-61
2023/02/22 11:34:51;;;;;;;4.82;1.90;;;;;;;;;;4995341;28;20402;-61
2023/02/22 11:37:21;;;;;;;3.30;2.00;;;;;;;;;;4994757;28;20030;-69
2023/02/22 11:39:46;;;;;;;3.53;1.90;;;;;;;;;;4994914;28;20454;-69
2023/02/22 11:42:22;;;;;;;3.50;2.00;;;;;;;;;;4994395;28;20018;-69
2023/02/22 11:44:49;;;;;;;4.50;1.90;;;;;;;;;;4977322;28;20030;-69
2023/02/22 11:47:14;;;;;;;3.60;1.60;;;;;;;;;;4994652;28;20026;-69
2023/02/22 11:49:41;;;;;;;6.13;2.67;;;;;;;;;;4994523;28;20484;-70
2023/02/22 11:52:06;;;;;;;5.00;2.40;;;;;;;;;;4994225;28;20058;-69
2023/02/22 11:54:32;;;;;;;3.55;1.67;;;;;;;;;;4993016;28;20061;-69
2023/02/22 11:57:00;;;;;;;7.15;2.85;;;;;;;;;;4994294;28;20030;-70
2023/02/22 11:59:28;;;;;;;6.90;3.38;;;;;;;;;;4994754;28;20363;-70
2023/02/22 12:02:02;;;;;;;3.03;1.92;;;;;;;;;;4994379;28;20443;-70
2023/02/22 12:04:42;;;;;;;3.58;2.13;;;;;;;;;;4993794;28;20087;-69
2023/02/22 12:07:16;;;;;;;4.03;1.75;;;;;;;;;;4994483;28;20113;-70
2023/02/22 12:09:45;;;;;;;4.22;2.08;;;;;;;;;;4994428;28;20185;-61
2023/02/22 12:12:10;;;;;;;3.08;1.67;;;;;;;;;;4994146;28;20514;-61
2023/02/22 12:14:54;;;;;;;3.13;1.63;;;;;;;;;;4994365;28;20081;-61
2023/02/22 12:17:20;;;;;;;4.50;2.08;;;;;;;;;;4994014;28;20114;-61
2023/02/22 12:19:47;;;;;;;5.05;2.47;;;;;;;;;;4993978;28;20503;-61
2023/02/22 12:22:20;;;;;;;5.95;2.10;;;;;;;;;;5003315;23;20029;-69
2023/02/22 12:24:51;;;;;;;4.90;2.40;;;;;;;;;;5007697;23;20146;-69
2023/02/22 12:27:21;;;;;;;4.63;2.28;;;;;;;;;;4986671;28;20042;-61
2023/02/22 12:29:49;;;;;;;4.78;2.10;;;;;;;;;;4994244;28;20027;-61
2023/02/22 12:32:33;;;;;;;3.75;2.22;;;;;;;;;;4994226;28;20031;-61
2023/02/22 12:35:04;;;;;;;4.95;2.13;;;;;;;;;;5030756;23;20051;-69
2023/02/22 12:37:29;;;;;;;6.00;2.33;;;;;;;;;;4991536;28;20061;-69
2023/02/22 12:40:12;;;;;;;2.88;1.67;;;;;;;;;;4991976;28;20038;-70
2023/02/22 12:42:47;;;;;;;6.32;2.10;;;;;;;;;;4994594;28;20097;-70
2023/02/22 12:45:36;;;;;;;6.32;2.70;;;;;;;;;;4994121;28;20489;-69
2023/02/22 12:48:20;;;;;;;4.75;2.15;;;;;;;;;;4981660;28;20046;-69
2023/02/22 12:50:47;;;;;;;5.53;2.10;;;;;;;;;;4994080;28;20391;-70
2023/02/22 12:53:18;;;;;;;6.57;2.38;;;;;;;;;;4994046;28;20098;-69
2023/02/22 12:55:50;;;;;;;3.38;1.58;;;;;;;;;;4994076;28;20462;-70
2023/02/22 12:58:23;;;;;;;4.25;2.05;;;;;;;;;;4994203;28;20031;-69
2023/02/22 13:01:10;;;;;;;4.07;2.15;;;;;;;;;;4993974;28;20534;-70
2023/02/22 13:03:37;;;;;;;5.15;2.42;;;;;;;;;;4993939;28;20113;-70
2023/02/22 13:08:53;;;;;;;4.93;2.40;;;;;;;;;;4999756;23;20563;-70
2023/02/22 13:11:31;;;;;;;3.92;2.30;;;;;;;;;;4993613;28;20034;-70
2023/02/22 13:14:14;;;;;;;4.80;2.28;;;;;;;;;;5007714;28;20383;-70
2023/02/22 13:16:51;;;;;;;5.68;2.53;;;;;;;;;;4996537;28;20027;-70
2023/02/22 13:19:33;;;;;;;5.38;3.20;;;;;;;;;;4997269;28;20061;-70
2023/02/22 13:22:06;;;;;;;8.55;2.58;;;;;;;;;;4997285;28;20034;-70
2023/02/22 13:24:36;;;;;;;4.57;2.50;;;;;;;;;;4997260;28;20030;-70
2023/02/22 13:27:10;;;;;;;4.13;2.65;;;;;;;;;;4997212;28;20023;-70
2023/02/22 13:29:37;;;;;;;3.20;2.15;;;;;;;;;;5008727;28;20430;-70
2023/02/22 13:32:18;;;;;;;4.55;2.78;;;;;;;;;;5012472;28;20030;-70
2023/02/22 13:34:46;;;;;;;5.88;2.83;;;;;;;;;;4997327;28;20030;-70
2023/02/22 13:37:36;;;;;;;6.10;2.95;;;;;;;;;;4996972;28;20034;-70
2023/02/22 13:40:25;;;;;;;5.30;2.70;;;;;;;;;;4995430;28;20085;-70
2023/02/22 13:43:00;;;;;;;4.65;2.15;;;;;;;;;;4997116;28;20450;-70
2023/02/22 13:45:35;;;;;;;3.95;2.53;;;;;;;;;;4996877;28;20022;-61
2023/02/22 13:48:01;;;;;;;2.83;2.22;;;;;;;;;;4996463;28;20034;-70
2023/02/22 13:50:35;;;;;;;5.35;2.78;;;;;;;;;;5021237;23;20025;-63
2023/02/22 13:53:02;;;;;;;4.47;2.95;;;;;;;;;;5003505;23;20062;-70
2023/02/22 13:55:31;;;;;;;5.78;2.78;;;;;;;;;;4996382;28;20105;-70
2023/02/22 13:58:05;;;;;;;4.93;2.70;;;;;;;;;;4996598;28;20518;-70
2023/02/22 14:00:41;;;;;;;5.75;2.85;;;;;;;;;;4996762;28;20038;-70
2023/02/22 14:03:07;;;;;;;6.07;2.53;;;;;;;;;;4996246;28;20031;-70
2023/02/22 14:05:36;;;;;;;6.95;3.00;;;;;;;;;;4996217;28;20470;-70
2023/02/22 14:08:01;;;;;;;8.20;2.55;;;;;;;;;;4996399;28;20026;-70
2023/02/22 14:10:42;;;;;;;5.55;3.05;;;;;;;;;;4996129;28;20019;-70
2023/02/22 14:13:08;;;;;;;;;;;;;;;;;;4988414;28;20482;-70
2023/02/22 14:15:34;;;;;;;7.63;4.38;;;;;;;;;;5011152;28;19910;-70
2023/02/22 14:18:06;;;;;;;8.60;3.75;;;;;;;;;;4996001;28;20105;-70
2023/02/22 14:20:35;;;;;;;5.75;2.80;;;;;;;;;;4996142;28;20470;-70
2023/02/22 14:23:19;;;;;;;6.80;3.10;;;;;;;;;;4994322;28;20030;-70
2023/02/22 14:25:45;;;;;;;9.77;3.10;;;;;;;;;;4992740;28;20061;-70
2023/02/22 14:28:29;;;;;;;7.43;3.20;;;;;;;;;;4995561;28;20059;-70
2023/02/22 14:31:13;;;;;;;10.65;2.97;;;;;;;;;;4996016;28;20100;-70
2023/02/22 14:33:49;;;;;;;7.88;3.85;;;;;;;;;;4995947;28;20043;-70
2023/02/22 14:36:15;;;;;;;7.68;3.78;;;;;;;;;;4995874;28;20109;-70
2023/02/22 14:38:43;;;;;;;6.78;4.38;;;;;;;;;;4990561;28;20074;-70
2023/02/22 14:41:08;;;;;;;6.32;2.95;;;;;;;;;;4994670;28;20030;-72
2023/02/22 14:43:35;;;;;;;6.05;3.55;;;;;;;;;;4994615;28;20045;-71
2023/02/22 14:46:04;;;;;;;5.88;3.20;;;;;;;;;;4992970;28;20046;-71
2023/02/22 14:48:41;;;;;;;12.75;5.50;;;;;;;;;;4994650;28;20032;-71
2023/02/22 14:51:22;;;;;;;6.57;3.53;;;;;;;;;;4985610;28;20030;-71
2023/02/22 14:53:52;;;;;;;6.38;2.88;;;;;;;;;;4994636;28;20093;-71
2023/02/22 14:56:19;;;;;;;;;;;;;;;;;;4995180;28;20076;-64
2023/02/22 14:59:06;;;;;;;8.07;4.03;;;;;;;;;;4991432;28;20332;-63
2023/02/22 15:01:38;;;;;;;13.43;5.60;;;;;;;;;;4995440;28;20088;-72